createdAt,value
2019-02-08T00:01:53.545Z,8.23
2019-02-08T00:04:40.794Z,7.70
2019-02-08T00:07:32.227Z,7.30
2019-02-08T00:10:19.929Z,7.73
2019-02-08T00:13:14.301Z,7.53
2019-02-08T00:16:13.286Z,7.23
2019-02-08T00:19:01.206Z,7.10
2019-02-08T00:22:24.349Z,7.63
2019-02-08T00:25:21.696Z,7.90
2019-02-08T00:28:09.003Z,7.97
2019-02-08T00:30:57.104Z,8.50
2019-02-08T00:33:51.111Z,8.07
2019-02-08T00:36:39.016Z,8.33
2019-02-08T00:39:26.646Z,8.97
2019-02-08T00:42:23.493Z,8.87
2019-02-08T00:45:12.339Z,8.77
2019-02-08T00:47:59.729Z,9.33
2019-02-08T00:50:47.689Z,9.50
2019-02-08T00:53:36.126Z,10.33
2019-02-08T00:56:24.157Z,10.73
2019-02-08T00:59:11.872Z,10.10
2019-02-08T01:01:59.512Z,9.70
2019-02-08T01:04:48.763Z,10.93
2019-02-08T01:07:36.080Z,12.30
2019-02-08T01:10:27.490Z,10.77
2019-02-08T01:13:15.882Z,10.67
2019-02-08T01:16:03.648Z,11.30
2019-02-08T01:19:10.602Z,11.07
2019-02-08T01:22:02.437Z,13.13
2019-02-08T01:25:26.590Z,13.03
2019-02-08T01:28:17.690Z,11.60
2019-02-08T01:31:08.845Z,11.33
2019-02-08T01:34:09.410Z,12.20
2019-02-08T01:44:12.860Z,11.40
2019-02-08T01:47:05.505Z,11.27
2019-02-08T01:49:53.380Z,12.47
2019-02-08T01:52:47.094Z,12.03
2019-02-08T01:58:46.571Z,13.43
2019-02-08T02:01:33.774Z,12.83
2019-02-08T02:04:21.353Z,13.50
2019-02-08T02:07:09.948Z,13.17
2019-02-08T02:09:57.129Z,12.80
2019-02-08T02:12:45.114Z,12.70
2019-02-08T02:15:32.250Z,12.27
2019-02-08T02:18:20.438Z,11.93
2019-02-08T02:24:55.123Z,10.97
2019-02-08T02:27:42.887Z,11.50
2019-02-08T02:30:34.157Z,12.20
2019-02-08T02:33:21.900Z,10.47
2019-02-08T02:36:09.258Z,11.50
2019-02-08T02:38:57.049Z,10.67
2019-02-08T02:41:47.336Z,10.23
2019-02-08T02:44:34.605Z,10.53
2019-02-08T02:47:22.210Z,10.03
2019-02-08T02:50:09.968Z,9.70
2019-02-08T02:52:57.111Z,9.93
2019-02-08T02:55:47.087Z,11.17
2019-02-08T03:02:59.132Z,10.77
2019-02-08T03:05:00.814Z,11.37
2019-02-08T03:07:51.061Z,10.60
2019-02-08T03:10:40.928Z,10.90
2019-02-08T03:13:29.936Z,10.53
2019-02-08T03:16:18.055Z,10.97
2019-02-08T03:19:05.829Z,10.63
2019-02-08T03:25:03.640Z,10.97
2019-02-08T03:27:51.525Z,10.00
2019-02-08T03:33:51.180Z,10.83
2019-02-08T03:36:39.001Z,11.60
2019-02-08T03:43:10.420Z,12.73
2019-02-08T03:45:58.250Z,11.93
2019-02-08T03:48:46.175Z,12.20
2019-02-08T03:51:49.438Z,11.73
2019-02-08T03:54:37.524Z,12.33
2019-02-08T03:57:29.706Z,12.00
2019-02-08T04:00:25.119Z,11.70
2019-02-08T04:03:18.888Z,12.13
2019-02-08T04:07:11.209Z,12.27
2019-02-08T04:09:37.610Z,12.87
2019-02-08T04:12:24.806Z,11.57
2019-02-08T04:18:25.343Z,14.17
2019-02-08T04:22:05.771Z,12.70
2019-02-08T04:24:53.074Z,12.07
2019-02-08T04:27:40.839Z,12.80
2019-02-08T04:30:29.124Z,13.13
2019-02-08T04:33:18.444Z,13.47
2019-02-08T04:36:06.399Z,15.13
2019-02-08T04:38:55.594Z,12.23
2019-02-08T04:41:43.628Z,12.83
2019-02-08T04:44:31.264Z,12.97
2019-02-08T04:47:18.829Z,14.37
2019-02-08T04:50:07.007Z,13.83
2019-02-08T04:52:57.770Z,17.27
2019-02-08T04:55:45.829Z,13.10
2019-02-08T04:58:42.135Z,15.73
2019-02-08T05:01:30.182Z,15.33
2019-02-08T05:04:17.992Z,16.17
2019-02-08T05:07:05.837Z,15.10
2019-02-08T05:09:53.769Z,15.17
2019-02-08T05:12:41.438Z,13.60
2019-02-08T05:15:29.034Z,12.93
2019-02-08T05:18:16.575Z,14.07
2019-02-08T05:21:04.393Z,14.10
2019-02-08T05:23:52.001Z,13.13
2019-02-08T05:26:39.071Z,15.13
2019-02-08T05:29:27.436Z,15.30
2019-02-08T05:32:14.950Z,14.77
2019-02-08T05:35:02.632Z,16.10
2019-02-08T05:37:50.318Z,14.63
2019-02-08T05:40:38.205Z,14.20
2019-02-08T05:43:25.537Z,13.30
2019-02-08T05:46:12.838Z,13.80
2019-02-08T05:49:00.489Z,13.17
2019-02-08T05:51:48.075Z,14.07
2019-02-08T05:54:35.308Z,13.17
2019-02-08T05:57:23.027Z,14.40
2019-02-08T06:00:13.195Z,14.03
2019-02-08T06:03:00.927Z,12.47
2019-02-08T06:05:49.127Z,12.37
2019-02-08T06:08:36.592Z,14.30
2019-02-08T06:11:24.324Z,12.57
2019-02-08T06:14:11.634Z,12.33
2019-02-08T06:16:59.597Z,11.60
2019-02-08T06:19:47.270Z,12.70
2019-02-08T06:22:34.483Z,12.00
2019-02-08T06:25:22.203Z,11.33
2019-02-08T06:28:09.564Z,11.07
2019-02-08T06:30:56.807Z,9.67
2019-02-08T06:33:44.452Z,10.50
2019-02-08T06:36:32.072Z,11.27
2019-02-08T06:42:28.492Z,11.60
2019-02-08T06:45:18.267Z,10.37
2019-02-08T06:48:05.963Z,8.93
2019-02-08T06:50:53.186Z,11.73
2019-02-08T06:53:59.465Z,8.60
2019-02-08T06:57:07.765Z,8.73
2019-02-08T07:00:15.822Z,8.50
2019-02-08T07:03:25.058Z,9.07
2019-02-08T07:06:17.891Z,9.03
2019-02-08T07:09:39.062Z,7.10
2019-02-08T07:12:46.785Z,7.20
2019-02-08T07:16:08.153Z,7.37
2019-02-08T07:19:03.769Z,7.07
2019-02-08T07:22:16.279Z,6.67
2019-02-08T07:25:33.348Z,5.73
2019-02-08T07:28:37.274Z,6.27
2019-02-08T07:31:45.820Z,7.57
2019-02-08T07:34:52.488Z,6.07
2019-02-08T07:37:50.346Z,6.57
2019-02-08T07:41:04.336Z,4.87
2019-02-08T07:44:13.836Z,5.13
2019-02-08T07:47:35.370Z,3.93
2019-02-08T07:50:32.102Z,5.37
2019-02-08T07:53:35.087Z,3.50
2019-02-08T07:56:28.860Z,3.83
2019-02-08T07:59:38.071Z,4.40
2019-02-08T08:02:42.496Z,3.13
2019-02-08T08:05:47.578Z,4.23
2019-02-08T08:08:58.859Z,3.30
2019-02-08T08:12:18.019Z,2.83
2019-02-08T08:15:14.977Z,8.37
2019-02-08T08:18:36.164Z,3.83
2019-02-08T08:21:50.730Z,3.83
2019-02-08T08:24:55.500Z,2.73
2019-02-08T08:28:07.611Z,3.13
2019-02-08T08:31:14.519Z,3.27
2019-02-08T08:34:07.270Z,3.17
2019-02-08T08:37:13.962Z,2.87
2019-02-08T08:40:26.868Z,3.30
2019-02-08T08:43:36.385Z,4.27
2019-02-08T08:46:37.994Z,3.83
2019-02-08T08:49:44.604Z,4.17
2019-02-08T08:52:36.223Z,3.47
2019-02-08T08:55:45.866Z,2.73
2019-02-08T08:58:58.041Z,3.27
2019-02-08T09:02:07.162Z,2.30
2019-02-08T09:05:16.940Z,2.80
2019-02-08T09:08:28.456Z,1.93
2019-02-08T09:11:37.586Z,2.83
2019-02-08T09:14:37.304Z,1.57
2019-02-08T09:17:43.840Z,2.47
2019-02-08T09:20:50.412Z,2.23
2019-02-08T09:23:55.797Z,2.13
2019-02-08T09:27:01.855Z,2.30
2019-02-08T09:30:10.933Z,2.63
2019-02-08T09:33:16.219Z,2.30
2019-02-08T09:36:47.346Z,2.50
2019-02-08T09:39:44.192Z,1.53
2019-02-08T09:43:03.782Z,1.77
2019-02-08T09:46:16.315Z,2.17
2019-02-08T09:49:41.035Z,2.03
2019-02-08T09:52:37.792Z,0.83
2019-02-08T09:55:46.727Z,1.43
2019-02-08T09:58:52.767Z,1.70
2019-02-08T10:02:02.124Z,1.63
2019-02-08T10:05:23.719Z,1.47
2019-02-08T10:08:33.410Z,1.00
2019-02-08T10:11:38.492Z,1.83
2019-02-08T10:14:44.841Z,1.17
2019-02-08T10:17:53.844Z,1.27
2019-02-08T10:21:15.279Z,0.87
2019-02-08T10:24:27.346Z,2.37
2019-02-08T10:27:34.474Z,1.83
2019-02-08T10:30:49.999Z,1.50
2019-02-08T10:33:55.159Z,1.50
2019-02-08T10:37:00.204Z,1.50
2019-02-08T10:40:06.615Z,1.43
2019-02-08T10:43:11.297Z,1.13
2019-02-08T10:46:21.104Z,1.20
2019-02-08T10:49:20.084Z,1.33
2019-02-08T10:52:39.069Z,1.63
2019-02-08T10:56:02.835Z,1.30
2019-02-08T10:59:05.456Z,1.17
2019-02-08T11:02:10.564Z,0.80
2019-02-08T11:05:15.903Z,1.27
2019-02-08T11:08:28.331Z,0.90
2019-02-08T11:11:32.414Z,1.10
2019-02-08T11:14:37.380Z,1.90
2019-02-08T11:17:43.804Z,1.13
2019-02-08T11:20:31.067Z,1.60
2019-02-08T11:23:18.699Z,0.70
2019-02-08T11:26:06.632Z,1.47
2019-02-08T11:28:53.961Z,0.77
2019-02-08T11:31:41.516Z,1.00
2019-02-08T11:34:28.896Z,0.60
2019-02-08T11:37:16.297Z,0.93
2019-02-08T11:40:06.321Z,0.77
2019-02-08T11:42:53.528Z,1.23
2019-02-08T11:45:41.111Z,0.67
2019-02-08T11:48:28.676Z,0.93
2019-02-08T11:51:16.361Z,0.80
2019-02-08T11:54:03.406Z,2.53
2019-02-08T11:56:51.410Z,0.73
2019-02-08T11:59:38.314Z,1.33
2019-02-08T12:02:25.330Z,0.30
2019-02-08T12:05:13.332Z,1.23
2019-02-08T12:08:00.581Z,1.40
2019-02-08T12:10:48.220Z,1.23
2019-02-08T12:13:35.764Z,0.70
2019-02-08T12:16:22.866Z,0.67
2019-02-08T12:19:10.068Z,1.03
2019-02-08T12:21:57.125Z,1.13
2019-02-08T12:24:44.456Z,0.30
2019-02-08T12:27:32.240Z,0.13
2019-02-08T12:30:21.525Z,0.43
2019-02-08T12:33:08.805Z,0.33
2019-02-08T12:35:55.766Z,0.40
2019-02-08T12:38:43.462Z,0.87
2019-02-08T12:41:30.972Z,0.40
2019-02-08T12:44:18.510Z,0.33
2019-02-08T12:47:06.214Z,0.93
2019-02-08T12:49:53.813Z,0.50
2019-02-08T12:52:41.234Z,0.40
2019-02-08T12:55:29.037Z,0.20
2019-02-08T12:58:16.528Z,1.23
2019-02-08T13:01:04.140Z,0.40
2019-02-08T13:03:51.767Z,0.30
2019-02-08T13:06:39.336Z,0.23
2019-02-08T13:09:27.024Z,0.13
2019-02-08T13:12:14.581Z,0.10
2019-02-08T13:15:01.922Z,0.97
2019-02-08T13:17:49.761Z,1.67
2019-02-08T13:20:36.929Z,0.10
2019-02-08T13:23:24.169Z,0.10
2019-02-08T13:26:11.866Z,0.10
2019-02-08T13:28:59.517Z,0.40
2019-02-08T13:31:47.211Z,0.20
2019-02-08T13:34:34.738Z,0.47
2019-02-08T13:37:22.309Z,1.03
2019-02-08T13:40:10.317Z,0.40
2019-02-08T13:42:57.589Z,0.80
2019-02-08T13:45:45.184Z,1.23
2019-02-08T13:48:32.856Z,0.30
2019-02-08T13:51:19.972Z,0.60
2019-02-08T13:54:07.230Z,0.87
2019-02-08T13:57:00.509Z,0.17
2019-02-08T13:59:43.522Z,0.40
2019-02-08T14:02:30.584Z,1.80
2019-02-08T14:05:17.918Z,0.40
2019-02-08T14:08:05.625Z,0.53
2019-02-08T14:10:52.606Z,1.80
2019-02-08T14:13:40.890Z,0.23
2019-02-08T14:16:27.877Z,0.60
2019-02-08T14:19:15.757Z,0.20
2019-02-08T14:22:03.335Z,0.70
2019-02-08T14:24:50.724Z,0.37
2019-02-08T14:27:37.968Z,0.87
2019-02-08T14:30:26.890Z,1.17
2019-02-08T14:33:14.726Z,0.90
2019-02-08T14:36:01.806Z,0.43
2019-02-08T14:38:48.885Z,0.73
2019-02-08T14:41:36.431Z,1.43
2019-02-08T14:44:23.985Z,0.60
2019-02-08T14:47:11.654Z,0.93
2019-02-08T14:49:59.134Z,1.20
2019-02-08T14:52:46.387Z,0.90
2019-02-08T14:55:33.794Z,0.30
2019-02-08T14:58:21.435Z,0.93
2019-02-08T15:01:08.611Z,0.70
2019-02-08T15:03:55.896Z,1.07
2019-02-08T15:06:43.543Z,1.13
2019-02-08T15:09:31.231Z,0.73
2019-02-08T15:12:18.617Z,1.40
2019-02-08T15:15:06.268Z,0.80
2019-02-08T15:17:53.903Z,1.50
2019-02-08T15:20:41.465Z,0.80
2019-02-08T15:23:28.822Z,1.17
2019-02-08T15:26:15.949Z,1.13
2019-02-08T15:29:03.367Z,1.97
2019-02-08T15:31:50.464Z,0.80
2019-02-08T15:34:37.515Z,0.67
2019-02-08T15:37:24.771Z,1.83
2019-02-08T15:40:14.310Z,1.83
2019-02-08T15:43:01.795Z,2.30
2019-02-08T15:45:51.038Z,1.40
2019-02-08T15:48:38.019Z,2.77
2019-02-08T15:51:25.133Z,1.27
2019-02-08T15:54:12.636Z,1.03
2019-02-08T15:56:59.901Z,2.10
2019-02-08T15:59:47.498Z,1.60
2019-02-08T16:02:35.218Z,1.90
2019-02-08T16:05:22.346Z,1.33
2019-02-08T16:08:10.132Z,1.53
2019-02-08T16:10:57.081Z,0.93
2019-02-08T16:13:44.368Z,2.37
2019-02-08T16:16:32.086Z,2.87
2019-02-08T16:19:19.528Z,1.93
2019-02-08T16:22:07.218Z,2.07
2019-02-08T16:24:54.480Z,2.30
2019-02-08T16:27:42.139Z,1.90
2019-02-08T16:30:30.407Z,2.77
2019-02-08T16:33:17.788Z,1.43
2019-02-08T16:36:05.664Z,1.60
2019-02-08T16:38:53.071Z,1.33
2019-02-08T16:41:40.829Z,1.73
2019-02-08T16:44:28.441Z,2.47
2019-02-08T16:47:16.535Z,2.67
2019-02-08T16:50:05.395Z,2.20
2019-02-08T16:52:52.919Z,2.33
2019-02-08T16:55:40.643Z,2.67
2019-02-08T16:58:27.487Z,2.33
2019-02-08T17:01:14.967Z,2.17
2019-02-08T17:04:02.233Z,1.80
2019-02-08T17:06:49.859Z,2.17
2019-02-08T17:09:37.487Z,2.83
2019-02-08T17:12:24.899Z,3.57
2019-02-08T17:15:13.385Z,2.30
2019-02-08T17:18:00.601Z,2.93
2019-02-08T17:20:49.470Z,2.60
2019-02-08T17:23:37.038Z,3.17
2019-02-08T17:26:24.369Z,3.50
2019-02-08T17:29:11.740Z,2.67
2019-02-08T17:31:59.414Z,0.93
2019-02-08T17:34:46.505Z,6.37
2019-02-08T17:37:34.033Z,1.40
2019-02-08T17:40:22.434Z,2.93
2019-02-08T17:43:10.176Z,3.07
2019-02-08T17:45:57.600Z,3.97
2019-02-08T17:48:45.463Z,3.13
2019-02-08T17:51:33.060Z,2.00
2019-02-08T17:54:25.495Z,2.80
2019-02-08T17:57:09.076Z,2.40
2019-02-08T17:59:56.640Z,2.30
2019-02-08T18:02:44.347Z,3.07
2019-02-08T18:05:31.940Z,3.13
2019-02-08T18:08:19.653Z,3.23
2019-02-08T18:11:07.244Z,3.17
2019-02-08T18:13:54.759Z,3.50
2019-02-08T18:16:42.088Z,3.70
2019-02-08T18:19:29.493Z,3.20
2019-02-08T18:22:17.184Z,2.60
2019-02-08T18:25:05.159Z,2.47
2019-02-08T18:27:52.402Z,3.23
2019-02-08T18:30:40.023Z,2.37
2019-02-08T18:33:27.436Z,2.40
2019-02-08T18:36:14.852Z,2.70
2019-02-08T18:39:03.393Z,3.77
2019-02-08T18:41:50.981Z,2.17
2019-02-08T18:44:38.191Z,1.70
2019-02-08T18:47:25.327Z,3.40
2019-02-08T18:50:15.152Z,5.53
2019-02-08T18:53:02.566Z,2.87
2019-02-08T18:55:50.146Z,2.30
2019-02-08T18:58:37.717Z,4.00
2019-02-08T19:01:25.000Z,3.57
2019-02-08T19:04:12.405Z,4.13
2019-02-08T19:07:00.191Z,3.50
2019-02-08T19:09:47.752Z,2.90
2019-02-08T19:12:35.018Z,2.57
2019-02-08T19:15:22.626Z,3.77
2019-02-08T19:18:10.332Z,3.03
2019-02-08T19:20:57.346Z,6.70
2019-02-08T19:23:44.877Z,5.50
2019-02-08T19:26:32.982Z,3.63
2019-02-08T19:29:20.822Z,3.13
2019-02-08T19:32:08.577Z,4.10
2019-02-08T19:34:56.446Z,4.23
2019-02-08T19:37:44.176Z,3.80
2019-02-08T19:40:32.846Z,3.50
2019-02-08T19:43:19.816Z,3.10
2019-02-08T19:46:07.005Z,3.47
2019-02-08T19:48:54.702Z,3.63
2019-02-08T19:51:42.091Z,3.43
2019-02-08T19:54:30.938Z,4.53
2019-02-08T19:57:18.439Z,3.40
2019-02-08T20:00:08.210Z,2.53
2019-02-08T20:02:55.840Z,2.53
2019-02-08T20:05:43.442Z,3.90
2019-02-08T20:08:30.470Z,4.50
2019-02-08T20:11:17.456Z,4.10
2019-02-08T20:14:05.240Z,4.90
2019-02-08T20:16:52.669Z,4.67
2019-02-08T20:19:40.211Z,3.50
2019-02-08T20:22:27.636Z,4.63
2019-02-08T20:25:15.907Z,4.60
2019-02-08T20:28:03.352Z,5.27
2019-02-08T20:30:51.135Z,4.33
2019-02-08T20:33:38.307Z,3.00
2019-02-08T20:36:26.231Z,3.43
2019-02-08T20:39:13.856Z,5.17
2019-02-08T20:42:01.178Z,4.77
2019-02-08T20:44:48.744Z,4.87
2019-02-08T20:47:36.196Z,5.10
2019-02-08T20:50:24.678Z,3.10
2019-02-08T20:53:12.632Z,5.50
2019-02-08T20:55:59.755Z,4.77
2019-02-08T20:58:50.340Z,6.03
2019-02-08T21:01:37.122Z,5.83
2019-02-08T21:04:24.692Z,4.60
2019-02-08T21:07:12.094Z,5.97
2019-02-08T21:09:59.412Z,5.03
2019-02-08T21:12:47.114Z,5.77
2019-02-08T21:15:35.219Z,4.37
2019-02-08T21:18:22.860Z,3.77
2019-02-08T21:21:10.358Z,2.70
2019-02-08T21:23:58.447Z,4.03
2019-02-08T21:26:46.293Z,4.23
2019-02-08T21:29:33.637Z,3.50
2019-02-08T21:32:21.028Z,5.90
2019-02-08T21:35:09.008Z,4.77
2019-02-08T21:37:56.170Z,6.43
2019-02-08T21:40:43.289Z,4.70
2019-02-08T21:43:31.357Z,3.20
2019-02-08T21:46:18.831Z,4.33
2019-02-08T21:49:06.913Z,6.47
2019-02-08T21:51:54.398Z,4.17
2019-02-08T21:54:42.131Z,4.67
2019-02-08T21:57:29.550Z,4.00
2019-02-08T22:00:17.702Z,5.13
2019-02-08T22:03:05.762Z,5.27
2019-02-08T22:05:54.927Z,4.73
2019-02-08T22:08:42.649Z,5.27
2019-02-08T22:11:29.737Z,5.27
2019-02-08T22:14:17.632Z,5.43
2019-02-08T22:17:05.442Z,5.83
2019-02-08T22:19:52.573Z,6.80
2019-02-08T22:22:43.230Z,5.27
2019-02-08T22:25:31.084Z,5.47
2019-02-08T22:28:18.658Z,5.33
2019-02-08T22:31:05.805Z,6.43
2019-02-08T22:33:52.926Z,4.50
2019-02-08T22:36:40.464Z,6.93
2019-02-08T22:39:28.126Z,5.23
2019-02-08T22:42:15.123Z,4.67
2019-02-08T22:45:08.653Z,5.10
2019-02-08T22:47:52.145Z,8.10
2019-02-08T22:50:39.403Z,7.87
2019-02-08T22:53:26.753Z,6.13
2019-02-08T22:56:13.919Z,5.50
2019-02-08T22:59:01.729Z,6.07
2019-02-08T23:01:50.316Z,6.87
2019-02-08T23:04:37.829Z,5.37
2019-02-08T23:07:25.049Z,6.33
2019-02-08T23:10:12.134Z,6.03
2019-02-08T23:12:59.899Z,6.27
2019-02-08T23:15:47.281Z,8.33
2019-02-08T23:18:34.550Z,6.43
2019-02-08T23:21:21.664Z,6.97
2019-02-08T23:24:09.288Z,8.50
2019-02-08T23:26:56.645Z,6.00
2019-02-08T23:29:43.803Z,7.07
2019-02-08T23:32:30.956Z,6.70
2019-02-08T23:35:18.706Z,6.97
2019-02-08T23:38:06.238Z,7.60
2019-02-08T23:40:53.551Z,6.90
2019-02-08T23:43:40.754Z,8.53
2019-02-08T23:46:28.263Z,8.03
2019-02-08T23:49:16.012Z,8.27
2019-02-08T23:52:03.410Z,8.40
2019-02-08T23:54:50.602Z,6.63
2019-02-08T23:57:39.420Z,5.50
